DKEKS EDXM-EDXM
Flight info
| Callsign | DKEKS |
|---|---|
| Flight time | 0h 21m |
| Altitude | 3000 |
| Route | DCT |
| Aircraft | A33E/L-SFG/C |
Departure
| Time | 2026-05-06 17:47 |
|---|---|
| Airport | Sankt Michaelisdonn Airfield (EDXM) |
Arrival
| Time | 2026-05-06 18:08 |
|---|---|
| Airport | Sankt Michaelisdonn Airfield (EDXM) |
| Time | Latitude | Longitude | Altitude | Speed | Heading |
|---|---|---|---|---|---|
| 2026-05-06 17:40 | 53.97817 | 9.14975 | 128 ft | 0 kts | 268° |
| 2026-05-06 17:44 | 53.97817 | 9.14966 | 129 ft | 5 kts | 278° |
| 2026-05-06 17:44 | 53.97824 | 9.14953 | 129 ft | 10 kts | 274° |
| 2026-05-06 17:44 | 53.97846 | 9.14812 | 127 ft | 19 kts | 278° |
| 2026-05-06 17:44 | 53.97818 | 9.14475 | 128 ft | 34 kts | 260° |
| 2026-05-06 17:45 | 53.97741 | 9.14157 | 124 ft | 24 kts | 240° |
| 2026-05-06 17:45 | 53.97779 | 9.14064 | 124 ft | 11 kts | 56° |
| 2026-05-06 17:45 | 53.97785 | 9.14094 | 125 ft | 0 kts | 83° |
| 2026-05-06 17:45 | 53.97785 | 9.14102 | 125 ft | 7 kts | 81° |
| 2026-05-06 17:46 | 53.97823 | 9.14466 | 127 ft | 53 kts | 80° |
| 2026-05-06 17:46 | 53.97892 | 9.15225 | 224 ft | 74 kts | 85° |
| 2026-05-06 17:46 | 53.97958 | 9.16051 | 464 ft | 73 kts | 62° |
| 2026-05-06 17:46 | 53.98389 | 9.16467 | 718 ft | 75 kts | 17° |
| 2026-05-06 17:47 | 53.98871 | 9.16730 | 913 ft | 77 kts | 22° |
| 2026-05-06 17:47 | 53.99349 | 9.17043 | 1169 ft | 74 kts | 25° |
| 2026-05-06 17:47 | 53.99648 | 9.17251 | 1317 ft | 73 kts | 23° |
| 2026-05-06 17:47 | 53.99750 | 9.17314 | 1371 ft | 72 kts | 24° |
| 2026-05-06 17:48 | 54.00232 | 9.17635 | 1582 ft | 75 kts | 26° |
| 2026-05-06 17:48 | 54.00708 | 9.17980 | 1814 ft | 75 kts | 26° |
| 2026-05-06 17:48 | 54.01156 | 9.18322 | 1945 ft | 70 kts | 28° |
| 2026-05-06 17:48 | 54.01572 | 9.18692 | 1929 ft | 69 kts | 33° |
| 2026-05-06 17:49 | 54.01977 | 9.19082 | 1940 ft | 65 kts | 35° |
| 2026-05-06 17:49 | 54.02360 | 9.19535 | 1925 ft | 67 kts | 46° |
| 2026-05-06 17:49 | 54.02737 | 9.19971 | 1919 ft | 71 kts | 9° |
| 2026-05-06 17:49 | 54.03179 | 9.19663 | 1976 ft | 71 kts | 316° |
| 2026-05-06 17:50 | 54.03509 | 9.19026 | 1979 ft | 71 kts | 317° |
| 2026-05-06 17:50 | 54.03886 | 9.18374 | 1891 ft | 80 kts | 317° |
| 2026-05-06 17:50 | 54.04272 | 9.17710 | 1876 ft | 80 kts | 318° |
| 2026-05-06 17:50 | 54.04686 | 9.17082 | 1872 ft | 78 kts | 336° |
| 2026-05-06 17:51 | 54.05145 | 9.17317 | 1811 ft | 74 kts | 49° |
| 2026-05-06 17:51 | 54.05490 | 9.17934 | 1818 ft | 73 kts | 49° |
| 2026-05-06 17:51 | 54.05830 | 9.18560 | 1796 ft | 72 kts | 51° |
| 2026-05-06 17:51 | 54.06151 | 9.19212 | 1754 ft | 71 kts | 48° |
| 2026-05-06 17:52 | 54.06504 | 9.19824 | 1723 ft | 72 kts | 51° |
| 2026-05-06 17:52 | 54.06814 | 9.20478 | 1675 ft | 72 kts | 56° |
| 2026-05-06 17:52 | 54.07108 | 9.21165 | 1676 ft | 72 kts | 57° |
| 2026-05-06 17:52 | 54.07397 | 9.21851 | 1684 ft | 72 kts | 57° |
| 2026-05-06 17:53 | 54.07686 | 9.22546 | 1696 ft | 71 kts | 53° |
| 2026-05-06 17:53 | 54.07945 | 9.22878 | 1688 ft | 72 kts | 31° |
| 2026-05-06 17:53 | 54.08376 | 9.23319 | 1642 ft | 71 kts | 38° |
| 2026-05-06 17:53 | 54.08648 | 9.23967 | 1574 ft | 72 kts | 93° |
| 2026-05-06 17:54 | 54.08313 | 9.24592 | 1566 ft | 74 kts | 146° |
| 2026-05-06 17:54 | 54.08053 | 9.25165 | 1558 ft | 65 kts | 95° |
| 2026-05-06 17:54 | 54.07890 | 9.25926 | 1552 ft | 65 kts | 119° |
| 2026-05-06 17:54 | 54.07836 | 9.26569 | 1704 ft | 62 kts | 52° |
| 2026-05-06 17:55 | 54.08075 | 9.26309 | 2072 ft | 65 kts | 221° |
| 2026-05-06 17:55 | 54.08099 | 9.26303 | 2328 ft | 73 kts | 275° |
| 2026-05-06 17:55 | 54.08043 | 9.26352 | 2527 ft | 70 kts | 358° |
| 2026-05-06 17:55 | 54.07975 | 9.25961 | 2746 ft | 52 kts | 100° |
| 2026-05-06 17:56 | 54.08127 | 9.25689 | 2899 ft | 71 kts | 188° |
| 2026-05-06 17:56 | 54.08237 | 9.25706 | 3059 ft | 81 kts | 266° |
| 2026-05-06 17:56 | 54.08160 | 9.25737 | 3206 ft | 72 kts | 348° |
| 2026-05-06 17:56 | 54.08062 | 9.25505 | 3370 ft | 57 kts | 74° |
| 2026-05-06 17:57 | 54.08194 | 9.25176 | 3527 ft | 64 kts | 183° |
| 2026-05-06 17:57 | 54.08308 | 9.25245 | 3603 ft | 80 kts | 272° |
| 2026-05-06 17:57 | 54.08185 | 9.25281 | 3706 ft | 69 kts | 10° |
| 2026-05-06 17:57 | 54.08146 | 9.24879 | 3821 ft | 59 kts | 128° |
| 2026-05-06 17:58 | 54.08369 | 9.25013 | 3864 ft | 80 kts | 279° |
| 2026-05-06 17:58 | 54.08159 | 9.24985 | 3946 ft | 60 kts | 54° |
| 2026-05-06 17:58 | 54.08263 | 9.24576 | 3984 ft | 69 kts | 176° |
| 2026-05-06 17:58 | 54.08361 | 9.25045 | 4034 ft | 66 kts | 33° |
| 2026-05-06 17:59 | 54.08767 | 9.25022 | 4159 ft | 75 kts | 285° |
| 2026-05-06 17:59 | 54.08545 | 9.24979 | 4161 ft | 71 kts | 57° |
| 2026-05-06 17:59 | 54.08639 | 9.24579 | 4283 ft | 68 kts | 176° |
| 2026-05-06 17:59 | 54.08720 | 9.24900 | 4291 ft | 85 kts | 321° |
| 2026-05-06 18:00 | 54.08492 | 9.24568 | 4360 ft | 55 kts | 144° |
| 2026-05-06 18:00 | 54.07964 | 9.25332 | 4148 ft | 107 kts | 140° |
| 2026-05-06 18:00 | 54.07398 | 9.26332 | 3964 ft | 123 kts | 141° |
| 2026-05-06 18:00 | 54.06832 | 9.27416 | 4267 ft | 113 kts | 131° |
| 2026-05-06 18:01 | 54.06692 | 9.28535 | 4658 ft | 104 kts | 64° |
| 2026-05-06 18:01 | 54.06845 | 9.28957 | 4770 ft | 97 kts | 39° |
| 2026-05-06 18:01 | 54.07008 | 9.29650 | 4952 ft | 105 kts | 82° |
| 2026-05-06 18:01 | 54.06708 | 9.30712 | 5180 ft | 97 kts | 171° |
| 2026-05-06 18:02 | 54.06292 | 9.30481 | 5438 ft | 60 kts | 272° |
| 2026-05-06 18:02 | 54.06688 | 9.30318 | 5800 ft | 86 kts | 26° |
| 2026-05-06 18:02 | 54.06613 | 9.31347 | 5943 ft | 95 kts | 181° |
| 2026-05-06 18:02 | 54.06633 | 9.31056 | 6207 ft | 90 kts | 12° |
| 2026-05-06 18:03 | 54.07077 | 9.31752 | 6509 ft | 63 kts | 331° |
| 2026-05-06 18:03 | 54.07045 | 9.31315 | 6597 ft | 66 kts | 237° |
| 2026-05-06 18:03 | 54.06636 | 9.30533 | 6608 ft | 93 kts | 239° |
| 2026-05-06 18:03 | 54.06166 | 9.29770 | 6799 ft | 94 kts | 231° |
| 2026-05-06 18:04 | 54.05651 | 9.28989 | 6792 ft | 103 kts | 234° |
| 2026-05-06 18:04 | 54.05187 | 9.28156 | 6857 ft | 100 kts | 237° |
| 2026-05-06 18:04 | 54.04708 | 9.27269 | 6814 ft | 100 kts | 236° |
| 2026-05-06 18:04 | 54.04225 | 9.26422 | 6750 ft | 102 kts | 235° |
| 2026-05-06 18:05 | 54.03781 | 9.25621 | 6829 ft | 81 kts | 238° |
| 2026-05-06 18:05 | 54.03342 | 9.24829 | 6216 ft | 88 kts | 234° |
| 2026-05-06 18:05 | 54.02817 | 9.24126 | 5254 ft | 96 kts | 226° |
| 2026-05-06 18:05 | 54.02335 | 9.23678 | 4758 ft | 84 kts | 240° |
| 2026-05-06 18:06 | 54.01972 | 9.22808 | 4464 ft | 61 kts | 259° |
| 2026-05-06 18:06 | 54.01833 | 9.21840 | 3089 ft | 94 kts | 233° |
| 2026-05-06 18:06 | 54.01374 | 9.21106 | 2754 ft | 100 kts | 237° |
| 2026-05-06 18:06 | 54.00913 | 9.20504 | 3294 ft | 84 kts | 228° |
| 2026-05-06 18:07 | 54.00470 | 9.20101 | 3864 ft | 59 kts | 226° |
| 2026-05-06 18:07 | 54.00052 | 9.19669 | 2505 ft | 71 kts | 272° |
| 2026-05-06 18:07 | 53.99700 | 9.19125 | 1209 ft | 74 kts | 229° |
| 2026-05-06 18:07 | 53.99245 | 9.18437 | 691 ft | 78 kts | 235° |
| 2026-05-06 18:08 | 53.98835 | 9.17801 | 468 ft | 76 kts | 234° |
| 2026-05-06 18:08 | 53.98498 | 9.17189 | 440 ft | 60 kts | 244° |
| 2026-05-06 18:08 | 53.98280 | 9.16685 | 506 ft | 39 kts | 257° |
| 2026-05-06 18:08 | 53.98167 | 9.16379 | 462 ft | 28 kts | 274° |
| 2026-05-06 18:09 | 53.98035 | 9.16073 | 385 ft | 32 kts | 249° |
| 2026-05-06 18:09 | 53.97942 | 9.15798 | 171 ft | 31 kts | 264° |
| 2026-05-06 18:09 | 53.97805 | 9.15519 | 87 ft | 12 kts | 246° |
| 2026-05-06 18:09 | 53.97802 | 9.15503 | 93 ft | 0 kts | 256° |